sensor_id;sensor_type;location;lat;lon;timestamp;temperature;humidity
25839;DHT22;13669;50.186;27.062;2022-08-30T00:01:20;18.60;99.90
25839;DHT22;13669;50.186;27.062;2022-08-30T00:03:48;18.50;99.90
25839;DHT22;13669;50.186;27.062;2022-08-30T00:06:17;18.50;99.90
25839;DHT22;13669;50.186;27.062;2022-08-30T00:08:46;18.40;99.90
25839;DHT22;13669;50.186;27.062;2022-08-30T00:11:18;18.30;99.90
25839;DHT22;13669;50.186;27.062;2022-08-30T00:13:49;18.30;99.90
25839;DHT22;13669;50.186;27.062;2022-08-30T00:16:20;18.30;99.90
25839;DHT22;13669;50.186;27.062;2022-08-30T00:18:48;18.30;99.90
25839;DHT22;13669;50.186;27.062;2022-08-30T00:21:16;18.20;99.90
25839;DHT22;13669;50.186;27.062;2022-08-30T00:23:43;18.10;99.90
25839;DHT22;13669;50.186;27.062;2022-08-30T00:26:11;18.10;99.90
25839;DHT22;13669;50.186;27.062;2022-08-30T00:28:38;18.10;99.90
25839;DHT22;13669;50.186;27.062;2022-08-30T00:31:06;18.10;99.90
25839;DHT22;13669;50.186;27.062;2022-08-30T00:33:34;18.10;99.90
25839;DHT22;13669;50.186;27.062;2022-08-30T00:36:02;18.00;99.90
25839;DHT22;13669;50.186;27.062;2022-08-30T00:38:30;18.00;99.90
25839;DHT22;13669;50.186;27.062;2022-08-30T00:40:58;18.00;99.90
25839;DHT22;13669;50.186;27.062;2022-08-30T00:43:29;18.10;99.90
25839;DHT22;13669;50.186;27.062;2022-08-30T00:45:58;18.10;99.90
25839;DHT22;13669;50.186;27.062;2022-08-30T00:48:32;18.10;99.90
25839;DHT22;13669;50.186;27.062;2022-08-30T00:51:04;18.20;99.90
25839;DHT22;13669;50.186;27.062;2022-08-30T00:53:36;18.20;99.90
25839;DHT22;13669;50.186;27.062;2022-08-30T00:56:05;18.10;99.90
25839;DHT22;13669;50.186;27.062;2022-08-30T00:58:35;18.10;99.90
25839;DHT22;13669;50.186;27.062;2022-08-30T01:01:05;18.10;99.90
25839;DHT22;13669;50.186;27.062;2022-08-30T01:03:34;18.10;99.90
25839;DHT22;13669;50.186;27.062;2022-08-30T01:06:03;18.00;99.90
25839;DHT22;13669;50.186;27.062;2022-08-30T01:08:31;18.00;99.90
25839;DHT22;13669;50.186;27.062;2022-08-30T01:10:59;17.90;99.90
25839;DHT22;13669;50.186;27.062;2022-08-30T01:13:28;17.80;99.90
25839;DHT22;13669;50.186;27.062;2022-08-30T01:15:56;17.80;99.90
25839;DHT22;13669;50.186;27.062;2022-08-30T01:18:26;17.70;99.90
25839;DHT22;13669;50.186;27.062;2022-08-30T01:21:17;17.70;99.90
25839;DHT22;13669;50.186;27.062;2022-08-30T01:23:49;17.70;99.90
25839;DHT22;13669;50.186;27.062;2022-08-30T01:26:18;17.60;99.90
25839;DHT22;13669;50.186;27.062;2022-08-30T01:28:53;17.60;99.90
25839;DHT22;13669;50.186;27.062;2022-08-30T01:31:22;17.50;99.90
25839;DHT22;13669;50.186;27.062;2022-08-30T01:33:49;17.50;99.90
25839;DHT22;13669;50.186;27.062;2022-08-30T01:36:18;17.40;99.90
25839;DHT22;13669;50.186;27.062;2022-08-30T01:38:54;17.40;99.90
25839;DHT22;13669;50.186;27.062;2022-08-30T01:41:32;17.30;99.90
25839;DHT22;13669;50.186;27.062;2022-08-30T01:44:03;17.30;99.90
25839;DHT22;13669;50.186;27.062;2022-08-30T01:46:32;17.20;99.90
25839;DHT22;13669;50.186;27.062;2022-08-30T01:49:08;17.20;99.90
25839;DHT22;13669;50.186;27.062;2022-08-30T01:51:37;17.20;99.90
25839;DHT22;13669;50.186;27.062;2022-08-30T01:54:05;17.10;99.90
25839;DHT22;13669;50.186;27.062;2022-08-30T01:56:33;17.10;99.90
25839;DHT22;13669;50.186;27.062;2022-08-30T01:59:01;17.10;99.90
25839;DHT22;13669;50.186;27.062;2022-08-30T02:01:31;17.00;99.90
25839;DHT22;13669;50.186;27.062;2022-08-30T02:03:59;17.00;99.90
25839;DHT22;13669;50.186;27.062;2022-08-30T02:06:27;17.00;99.90
25839;DHT22;13669;50.186;27.062;2022-08-30T02:08:55;17.00;99.90
25839;DHT22;13669;50.186;27.062;2022-08-30T02:11:22;17.10;99.90
25839;DHT22;13669;50.186;27.062;2022-08-30T02:13:50;17.10;99.90
25839;DHT22;13669;50.186;27.062;2022-08-30T02:16:19;17.20;99.90
25839;DHT22;13669;50.186;27.062;2022-08-30T02:18:51;17.20;99.90
25839;DHT22;13669;50.186;27.062;2022-08-30T02:21:19;17.10;99.90
25839;DHT22;13669;50.186;27.062;2022-08-30T02:23:47;17.00;99.90
25839;DHT22;13669;50.186;27.062;2022-08-30T02:26:14;16.90;99.90
25839;DHT22;13669;50.186;27.062;2022-08-30T02:28:43;16.80;99.90
25839;DHT22;13669;50.186;27.062;2022-08-30T02:31:18;16.90;99.90
25839;DHT22;13669;50.186;27.062;2022-08-30T02:33:49;16.80;99.90
25839;DHT22;13669;50.186;27.062;2022-08-30T02:36:18;16.80;99.90
25839;DHT22;13669;50.186;27.062;2022-08-30T02:38:47;16.80;99.90
25839;DHT22;13669;50.186;27.062;2022-08-30T02:41:16;16.80;99.90
25839;DHT22;13669;50.186;27.062;2022-08-30T02:43:44;16.80;99.90
25839;DHT22;13669;50.186;27.062;2022-08-30T02:46:12;16.80;99.90
25839;DHT22;13669;50.186;27.062;2022-08-30T02:48:40;16.90;99.90
25839;DHT22;13669;50.186;27.062;2022-08-30T02:51:10;16.80;99.90
25839;DHT22;13669;50.186;27.062;2022-08-30T02:53:40;16.80;99.90
25839;DHT22;13669;50.186;27.062;2022-08-30T02:56:08;16.80;99.90
25839;DHT22;13669;50.186;27.062;2022-08-30T02:58:36;16.80;99.90
25839;DHT22;13669;50.186;27.062;2022-08-30T03:01:04;16.90;99.90
25839;DHT22;13669;50.186;27.062;2022-08-30T03:03:32;16.90;99.90
25839;DHT22;13669;50.186;27.062;2022-08-30T03:06:00;16.90;99.90
25839;DHT22;13669;50.186;27.062;2022-08-30T03:08:30;16.90;99.90
25839;DHT22;13669;50.186;27.062;2022-08-30T03:10:58;16.90;99.90
25839;DHT22;13669;50.186;27.062;2022-08-30T03:13:26;16.90;99.90
25839;DHT22;13669;50.186;27.062;2022-08-30T03:15:53;16.90;99.90
25839;DHT22;13669;50.186;27.062;2022-08-30T03:18:21;16.90;99.90
25839;DHT22;13669;50.186;27.062;2022-08-30T03:20:50;16.90;99.90
25839;DHT22;13669;50.186;27.062;2022-08-30T03:23:21;16.80;99.90
25839;DHT22;13669;50.186;27.062;2022-08-30T03:25:50;16.70;99.90
25839;DHT22;13669;50.186;27.062;2022-08-30T03:28:19;16.70;99.90
25839;DHT22;13669;50.186;27.062;2022-08-30T03:30:47;16.70;99.90
25839;DHT22;13669;50.186;27.062;2022-08-30T03:33:15;16.60;99.90
25839;DHT22;13669;50.186;27.062;2022-08-30T03:35:44;16.60;99.90
25839;DHT22;13669;50.186;27.062;2022-08-30T03:38:12;16.70;99.90
25839;DHT22;13669;50.186;27.062;2022-08-30T03:40:39;16.70;99.90
25839;DHT22;13669;50.186;27.062;2022-08-30T03:43:07;16.70;99.90
25839;DHT22;13669;50.186;27.062;2022-08-30T03:45:34;16.70;99.90
25839;DHT22;13669;50.186;27.062;2022-08-30T03:48:02;16.70;99.90
25839;DHT22;13669;50.186;27.062;2022-08-30T03:50:30;16.80;99.90
25839;DHT22;13669;50.186;27.062;2022-08-30T03:52:58;16.80;99.90
25839;DHT22;13669;50.186;27.062;2022-08-30T03:55:28;16.80;99.90
25839;DHT22;13669;50.186;27.062;2022-08-30T03:57:57;16.70;99.90
25839;DHT22;13669;50.186;27.062;2022-08-30T04:00:25;16.70;99.90
25839;DHT22;13669;50.186;27.062;2022-08-30T04:02:52;16.80;99.90
25839;DHT22;13669;50.186;27.062;2022-08-30T04:05:20;16.80;99.90
25839;DHT22;13669;50.186;27.062;2022-08-30T04:07:47;16.80;99.90
25839;DHT22;13669;50.186;27.062;2022-08-30T04:10:15;16.80;99.90
25839;DHT22;13669;50.186;27.062;2022-08-30T04:12:43;16.70;99.90
25839;DHT22;13669;50.186;27.062;2022-08-30T04:15:17;16.70;99.90
25839;DHT22;13669;50.186;27.062;2022-08-30T04:17:45;16.70;99.90
25839;DHT22;13669;50.186;27.062;2022-08-30T04:20:13;16.70;99.90
25839;DHT22;13669;50.186;27.062;2022-08-30T04:22:41;16.80;99.90
25839;DHT22;13669;50.186;27.062;2022-08-30T04:25:09;16.80;99.90
25839;DHT22;13669;50.186;27.062;2022-08-30T04:27:43;16.80;99.90
25839;DHT22;13669;50.186;27.062;2022-08-30T04:30:13;16.80;99.90
25839;DHT22;13669;50.186;27.062;2022-08-30T04:32:42;16.90;99.90
25839;DHT22;13669;50.186;27.062;2022-08-30T04:35:10;16.90;99.90
25839;DHT22;13669;50.186;27.062;2022-08-30T04:37:38;16.90;95.90
25839;DHT22;13669;50.186;27.062;2022-08-30T04:40:07;17.00;96.80
25839;DHT22;13669;50.186;27.062;2022-08-30T04:42:35;17.00;94.90
25839;DHT22;13669;50.186;27.062;2022-08-30T04:45:06;16.90;99.90
25839;DHT22;13669;50.186;27.062;2022-08-30T04:47:35;16.90;99.90
25839;DHT22;13669;50.186;27.062;2022-08-30T04:50:02;17.00;99.90
25839;DHT22;13669;50.186;27.062;2022-08-30T04:52:31;17.00;99.90
25839;DHT22;13669;50.186;27.062;2022-08-30T04:54:58;16.90;95.80
25839;DHT22;13669;50.186;27.062;2022-08-30T04:57:27;16.90;96.40
25839;DHT22;13669;50.186;27.062;2022-08-30T04:59:54;17.00;91.40
25839;DHT22;13669;50.186;27.062;2022-08-30T05:02:22;17.00;88.80
25839;DHT22;13669;50.186;27.062;2022-08-30T05:04:50;16.90;69.80
25839;DHT22;13669;50.186;27.062;2022-08-30T05:07:40;17.00;53.50
25839;DHT22;13669;50.186;27.062;2022-08-30T05:10:08;17.00;58.60
25839;DHT22;13669;50.186;27.062;2022-08-30T05:12:38;17.10;44.80
25839;DHT22;13669;50.186;27.062;2022-08-30T05:15:07;17.10;21.20
25839;DHT22;13669;50.186;27.062;2022-08-30T05:17:36;17.10;1.00
25839;DHT22;13669;50.186;27.062;2022-08-30T05:20:06;17.20;1.00
25839;DHT22;13669;50.186;27.062;2022-08-30T05:22:38;17.30;1.00
25839;DHT22;13669;50.186;27.062;2022-08-30T05:25:07;17.40;1.00
25839;DHT22;13669;50.186;27.062;2022-08-30T05:27:40;17.50;1.00
25839;DHT22;13669;50.186;27.062;2022-08-30T05:30:08;17.50;1.00
25839;DHT22;13669;50.186;27.062;2022-08-30T05:32:36;17.50;1.00
25839;DHT22;13669;50.186;27.062;2022-08-30T05:35:05;17.60;1.00
25839;DHT22;13669;50.186;27.062;2022-08-30T05:37:32;17.60;1.00
25839;DHT22;13669;50.186;27.062;2022-08-30T05:40:00;17.70;1.00
25839;DHT22;13669;50.186;27.062;2022-08-30T05:42:28;17.70;99.90
25839;DHT22;13669;50.186;27.062;2022-08-30T05:44:56;17.70;99.90
25839;DHT22;13669;50.186;27.062;2022-08-30T05:47:24;17.70;99.90
25839;DHT22;13669;50.186;27.062;2022-08-30T05:49:52;17.70;99.90
25839;DHT22;13669;50.186;27.062;2022-08-30T05:52:20;17.70;60.60
25839;DHT22;13669;50.186;27.062;2022-08-30T05:54:53;17.70;99.90
25839;DHT22;13669;50.186;27.062;2022-08-30T05:57:21;17.90;25.80
25839;DHT22;13669;50.186;27.062;2022-08-30T05:59:48;17.90;1.00
25839;DHT22;13669;50.186;27.062;2022-08-30T06:02:17;18.00;1.00
25839;DHT22;13669;50.186;27.062;2022-08-30T06:04:45;18.00;99.90
25839;DHT22;13669;50.186;27.062;2022-08-30T06:07:12;18.10;99.90
25839;DHT22;13669;50.186;27.062;2022-08-30T06:09:43;18.20;1.00
25839;DHT22;13669;50.186;27.062;2022-08-30T06:12:10;18.30;99.90
25839;DHT22;13669;50.186;27.062;2022-08-30T06:14:38;18.30;99.90
25839;DHT22;13669;50.186;27.062;2022-08-30T06:17:06;18.30;1.00
25839;DHT22;13669;50.186;27.062;2022-08-30T06:19:33;18.40;1.00
25839;DHT22;13669;50.186;27.062;2022-08-30T06:22:01;18.50;99.90
25839;DHT22;13669;50.186;27.062;2022-08-30T06:24:28;18.60;1.00
25839;DHT22;13669;50.186;27.062;2022-08-30T06:27:16;18.60;99.90
25839;DHT22;13669;50.186;27.062;2022-08-30T06:29:43;18.60;24.90
25839;DHT22;13669;50.186;27.062;2022-08-30T06:32:11;18.60;99.90
25839;DHT22;13669;50.186;27.062;2022-08-30T06:34:38;18.60;99.90
25839;DHT22;13669;50.186;27.062;2022-08-30T06:37:06;18.60;99.90
25839;DHT22;13669;50.186;27.062;2022-08-30T06:39:35;18.80;1.00
25839;DHT22;13669;50.186;27.062;2022-08-30T06:45:50;19.00;9.30
25839;DHT22;13669;50.186;27.062;2022-08-30T06:48:18;19.10;1.00
25839;DHT22;13669;50.186;27.062;2022-08-30T06:50:52;19.20;1.00
25839;DHT22;13669;50.186;27.062;2022-08-30T06:53:21;19.30;1.00
25839;DHT22;13669;50.186;27.062;2022-08-30T06:55:56;19.40;1.00
25839;DHT22;13669;50.186;27.062;2022-08-30T06:58:24;19.50;1.00
25839;DHT22;13669;50.186;27.062;2022-08-30T07:00:52;19.70;99.90
25839;DHT22;13669;50.186;27.062;2022-08-30T07:03:19;19.70;99.90
25839;DHT22;13669;50.186;27.062;2022-08-30T07:05:48;19.80;1.00
25839;DHT22;13669;50.186;27.062;2022-08-30T07:08:16;19.80;99.90
25839;DHT22;13669;50.186;27.062;2022-08-30T07:10:45;19.80;99.90
25839;DHT22;13669;50.186;27.062;2022-08-30T07:13:12;19.80;1.00
25839;DHT22;13669;50.186;27.062;2022-08-30T07:15:42;19.90;1.00
25839;DHT22;13669;50.186;27.062;2022-08-30T07:18:11;20.00;99.90
25839;DHT22;13669;50.186;27.062;2022-08-30T07:21:05;20.00;99.90
25839;DHT22;13669;50.186;27.062;2022-08-30T07:23:33;20.10;99.90
25839;DHT22;13669;50.186;27.062;2022-08-30T07:26:06;20.10;99.90
25839;DHT22;13669;50.186;27.062;2022-08-30T07:28:36;20.10;99.90
25839;DHT22;13669;50.186;27.062;2022-08-30T07:31:05;20.20;99.90
25839;DHT22;13669;50.186;27.062;2022-08-30T07:33:37;20.20;99.90
25839;DHT22;13669;50.186;27.062;2022-08-30T07:36:07;20.30;99.90
25839;DHT22;13669;50.186;27.062;2022-08-30T07:38:34;20.30;99.90
25839;DHT22;13669;50.186;27.062;2022-08-30T07:41:03;20.40;99.90
25839;DHT22;13669;50.186;27.062;2022-08-30T07:43:31;20.40;99.90
25839;DHT22;13669;50.186;27.062;2022-08-30T07:46:05;20.30;99.90
25839;DHT22;13669;50.186;27.062;2022-08-30T07:48:33;20.40;99.90
25839;DHT22;13669;50.186;27.062;2022-08-30T07:51:01;20.50;61.90
25839;DHT22;13669;50.186;27.062;2022-08-30T07:53:31;20.50;73.50
25839;DHT22;13669;50.186;27.062;2022-08-30T07:55:59;20.60;1.00
25839;DHT22;13669;50.186;27.062;2022-08-30T07:58:31;20.60;37.50
25839;DHT22;13669;50.186;27.062;2022-08-30T08:00:59;20.80;1.00
25839;DHT22;13669;50.186;27.062;2022-08-30T08:03:28;20.90;1.00
25839;DHT22;13669;50.186;27.062;2022-08-30T08:05:56;20.90;1.00
25839;DHT22;13669;50.186;27.062;2022-08-30T08:08:23;21.10;99.90
25839;DHT22;13669;50.186;27.062;2022-08-30T08:10:51;21.30;1.00
25839;DHT22;13669;50.186;27.062;2022-08-30T08:13:19;21.50;99.90
25839;DHT22;13669;50.186;27.062;2022-08-30T08:15:47;21.40;99.90
25839;DHT22;13669;50.186;27.062;2022-08-30T08:18:14;21.30;99.90
25839;DHT22;13669;50.186;27.062;2022-08-30T08:20:42;21.60;99.90
25839;DHT22;13669;50.186;27.062;2022-08-30T08:23:09;21.50;99.90
25839;DHT22;13669;50.186;27.062;2022-08-30T08:25:39;21.60;99.90
25839;DHT22;13669;50.186;27.062;2022-08-30T08:28:07;21.60;99.90
25839;DHT22;13669;50.186;27.062;2022-08-30T08:30:36;21.80;99.90
25839;DHT22;13669;50.186;27.062;2022-08-30T08:33:04;22.10;99.90
25839;DHT22;13669;50.186;27.062;2022-08-30T08:35:32;21.80;99.90
25839;DHT22;13669;50.186;27.062;2022-08-30T08:38:00;21.60;99.90
25839;DHT22;13669;50.186;27.062;2022-08-30T08:40:31;21.70;99.90
25839;DHT22;13669;50.186;27.062;2022-08-30T08:43:11;21.80;99.90
25839;DHT22;13669;50.186;27.062;2022-08-30T08:48:38;22.10;99.90
25839;DHT22;13669;50.186;27.062;2022-08-30T08:51:30;22.20;99.90
25839;DHT22;13669;50.186;27.062;2022-08-30T08:56:46;22.10;99.90
25839;DHT22;13669;50.186;27.062;2022-08-30T08:59:15;22.10;99.90
25839;DHT22;13669;50.186;27.062;2022-08-30T09:01:42;22.20;99.90
25839;DHT22;13669;50.186;27.062;2022-08-30T09:04:16;22.20;99.90
25839;DHT22;13669;50.186;27.062;2022-08-30T09:06:48;22.40;99.90
25839;DHT22;13669;50.186;27.062;2022-08-30T09:09:21;22.80;99.90
25839;DHT22;13669;50.186;27.062;2022-08-30T09:11:49;22.90;99.90
25839;DHT22;13669;50.186;27.062;2022-08-30T09:14:24;23.10;99.90
25839;DHT22;13669;50.186;27.062;2022-08-30T09:19:42;22.70;22.60
25839;DHT22;13669;50.186;27.062;2022-08-30T09:22:33;22.50;57.20
25839;DHT22;13669;50.186;27.062;2022-08-30T09:25:09;22.20;73.40
25839;DHT22;13669;50.186;27.062;2022-08-30T09:27:46;22.00;99.90
25839;DHT22;13669;50.186;27.062;2022-08-30T09:30:18;22.20;99.90
25839;DHT22;13669;50.186;27.062;2022-08-30T09:32:56;22.50;96.20
25839;DHT22;13669;50.186;27.062;2022-08-30T09:38:21;23.20;1.00
25839;DHT22;13669;50.186;27.062;2022-08-30T09:40:52;23.40;1.00
25839;DHT22;13669;50.186;27.062;2022-08-30T09:43:26;23.10;1.00
25839;DHT22;13669;50.186;27.062;2022-08-30T10:08:25;22.90;1.00
25839;DHT22;13669;50.186;27.062;2022-08-30T10:11:49;23.10;1.00
25839;DHT22;13669;50.186;27.062;2022-08-30T10:17:22;23.30;1.00
25839;DHT22;13669;50.186;27.062;2022-08-30T10:22:47;23.40;1.00
25839;DHT22;13669;50.186;27.062;2022-08-30T10:25:27;23.40;1.00
25839;DHT22;13669;50.186;27.062;2022-08-30T10:28:22;23.60;1.00
25839;DHT22;13669;50.186;27.062;2022-08-30T10:30:58;23.30;1.00
25839;DHT22;13669;50.186;27.062;2022-08-30T10:33:38;23.40;1.00
25839;DHT22;13669;50.186;27.062;2022-08-30T10:36:10;23.30;1.00
25839;DHT22;13669;50.186;27.062;2022-08-30T10:38:48;23.00;1.00
25839;DHT22;13669;50.186;27.062;2022-08-30T10:49:25;23.50;1.00
25839;DHT22;13669;50.186;27.062;2022-08-30T10:52:04;23.50;1.00
25839;DHT22;13669;50.186;27.062;2022-08-30T10:54:53;23.80;1.00
25839;DHT22;13669;50.186;27.062;2022-08-30T10:57:21;24.30;1.00
25839;DHT22;13669;50.186;27.062;2022-08-30T10:59:55;24.60;1.00
25839;DHT22;13669;50.186;27.062;2022-08-30T11:14:02;27.50;1.00
25839;DHT22;13669;50.186;27.062;2022-08-30T11:16:44;29.20;99.90
25839;DHT22;13669;50.186;27.062;2022-08-30T11:19:43;30.10;13.70
25839;DHT22;13669;50.186;27.062;2022-08-30T11:22:32;31.80;1.00
25839;DHT22;13669;50.186;27.062;2022-08-30T11:25:15;31.20;1.00
25839;DHT22;13669;50.186;27.062;2022-08-30T11:28:04;31.90;89.80
25839;DHT22;13669;50.186;27.062;2022-08-30T11:35:48;34.00;23.10
25839;DHT22;13669;50.186;27.062;2022-08-30T11:38:19;34.90;1.00
25839;DHT22;13669;50.186;27.062;2022-08-30T11:41:12;34.80;99.90
25839;DHT22;13669;50.186;27.062;2022-08-30T11:48:59;35.60;99.90
25839;DHT22;13669;50.186;27.062;2022-08-30T12:00:35;34.00;99.90
25839;DHT22;13669;50.186;27.062;2022-08-30T12:03:05;34.50;99.90
25839;DHT22;13669;50.186;27.062;2022-08-30T12:10:37;35.90;99.90
25839;DHT22;13669;50.186;27.062;2022-08-30T12:13:05;36.30;99.90
25839;DHT22;13669;50.186;27.062;2022-08-30T12:18:23;37.50;99.90
25839;DHT22;13669;50.186;27.062;2022-08-30T12:21:11;37.30;99.90
25839;DHT22;13669;50.186;27.062;2022-08-30T12:29:13;35.00;99.90
25839;DHT22;13669;50.186;27.062;2022-08-30T12:31:48;35.60;99.90
25839;DHT22;13669;50.186;27.062;2022-08-30T12:34:24;36.30;99.90
25839;DHT22;13669;50.186;27.062;2022-08-30T12:37:07;36.50;99.90
25839;DHT22;13669;50.186;27.062;2022-08-30T12:39:40;37.20;99.90
25839;DHT22;13669;50.186;27.062;2022-08-30T12:44:45;37.10;99.90
25839;DHT22;13669;50.186;27.062;2022-08-30T12:47:18;37.10;99.90
25839;DHT22;13669;50.186;27.062;2022-08-30T12:49:47;36.00;99.90
25839;DHT22;13669;50.186;27.062;2022-08-30T12:52:38;36.30;99.90
25839;DHT22;13669;50.186;27.062;2022-08-30T12:55:09;36.30;99.90
25839;DHT22;13669;50.186;27.062;2022-08-30T12:58:07;36.40;99.90
25839;DHT22;13669;50.186;27.062;2022-08-30T13:00:41;36.40;99.90
25839;DHT22;13669;50.186;27.062;2022-08-30T13:03:31;36.20;99.90
25839;DHT22;13669;50.186;27.062;2022-08-30T13:05:59;35.50;99.90
25839;DHT22;13669;50.186;27.062;2022-08-30T13:13:51;35.00;99.90
25839;DHT22;13669;50.186;27.062;2022-08-30T13:16:22;35.60;99.90
25839;DHT22;13669;50.186;27.062;2022-08-30T13:21:54;36.90;99.90
25839;DHT22;13669;50.186;27.062;2022-08-30T13:24:22;36.90;99.90
25839;DHT22;13669;50.186;27.062;2022-08-30T13:26:53;37.20;99.90
25839;DHT22;13669;50.186;27.062;2022-08-30T13:29:25;37.30;99.90
25839;DHT22;13669;50.186;27.062;2022-08-30T13:31:54;36.90;99.90
25839;DHT22;13669;50.186;27.062;2022-08-30T13:34:22;36.20;99.90
25839;DHT22;13669;50.186;27.062;2022-08-30T13:36:57;35.20;99.90
25839;DHT22;13669;50.186;27.062;2022-08-30T13:39:25;33.80;99.90
25839;DHT22;13669;50.186;27.062;2022-08-30T13:41:53;32.60;99.90
25839;DHT22;13669;50.186;27.062;2022-08-30T13:44:41;32.30;99.90
25839;DHT22;13669;50.186;27.062;2022-08-30T13:47:09;31.70;99.90
25839;DHT22;13669;50.186;27.062;2022-08-30T13:49:58;31.50;99.90
25839;DHT22;13669;50.186;27.062;2022-08-30T13:52:27;33.10;99.90
25839;DHT22;13669;50.186;27.062;2022-08-30T13:54:55;34.90;99.90
25839;DHT22;13669;50.186;27.062;2022-08-30T13:57:25;35.80;99.90
25839;DHT22;13669;50.186;27.062;2022-08-30T14:00:15;36.10;99.90
25839;DHT22;13669;50.186;27.062;2022-08-30T14:02:47;36.40;99.90
25839;DHT22;13669;50.186;27.062;2022-08-30T14:05:33;36.30;99.90
25839;DHT22;13669;50.186;27.062;2022-08-30T14:08:23;35.80;99.90
25839;DHT22;13669;50.186;27.062;2022-08-30T14:11:11;36.80;99.90
25839;DHT22;13669;50.186;27.062;2022-08-30T14:13:40;37.50;99.90
25839;DHT22;13669;50.186;27.062;2022-08-30T14:16:29;37.80;99.90
25839;DHT22;13669;50.186;27.062;2022-08-30T14:18:59;38.70;99.90
25839;DHT22;13669;50.186;27.062;2022-08-30T14:21:26;38.50;99.90
25839;DHT22;13669;50.186;27.062;2022-08-30T14:23:55;38.40;99.90
25839;DHT22;13669;50.186;27.062;2022-08-30T14:26:28;38.10;99.90
25839;DHT22;13669;50.186;27.062;2022-08-30T14:29:00;38.80;99.90
25839;DHT22;13669;50.186;27.062;2022-08-30T14:31:28;37.90;99.90
25839;DHT22;13669;50.186;27.062;2022-08-30T14:34:01;37.30;99.90
25839;DHT22;13669;50.186;27.062;2022-08-30T14:36:33;37.20;99.90
25839;DHT22;13669;50.186;27.062;2022-08-30T14:39:02;35.80;99.90
25839;DHT22;13669;50.186;27.062;2022-08-30T14:41:39;34.10;99.90
25839;DHT22;13669;50.186;27.062;2022-08-30T14:44:11;33.90;99.90
25839;DHT22;13669;50.186;27.062;2022-08-30T14:46:39;33.60;99.90
25839;DHT22;13669;50.186;27.062;2022-08-30T14:49:07;33.90;99.90
25839;DHT22;13669;50.186;27.062;2022-08-30T14:51:37;34.50;99.90
25839;DHT22;13669;50.186;27.062;2022-08-30T14:54:05;35.20;99.90
25839;DHT22;13669;50.186;27.062;2022-08-30T14:56:35;35.70;99.90
25839;DHT22;13669;50.186;27.062;2022-08-30T14:59:02;36.20;99.90
25839;DHT22;13669;50.186;27.062;2022-08-30T15:01:30;36.00;99.90
25839;DHT22;13669;50.186;27.062;2022-08-30T15:04:04;35.30;99.90
25839;DHT22;13669;50.186;27.062;2022-08-30T15:06:34;34.70;99.90
25839;DHT22;13669;50.186;27.062;2022-08-30T15:09:04;34.60;99.90
25839;DHT22;13669;50.186;27.062;2022-08-30T15:11:32;34.10;99.90
25839;DHT22;13669;50.186;27.062;2022-08-30T15:14:00;33.90;99.90
25839;DHT22;13669;50.186;27.062;2022-08-30T15:16:31;34.00;99.90
25839;DHT22;13669;50.186;27.062;2022-08-30T15:18:59;34.20;99.90
25839;DHT22;13669;50.186;27.062;2022-08-30T15:21:30;34.10;99.90
25839;DHT22;13669;50.186;27.062;2022-08-30T15:24:00;33.70;99.90
25839;DHT22;13669;50.186;27.062;2022-08-30T15:26:28;33.50;99.90
25839;DHT22;13669;50.186;27.062;2022-08-30T15:28:56;32.60;99.90
25839;DHT22;13669;50.186;27.062;2022-08-30T15:31:25;33.00;99.90
25839;DHT22;13669;50.186;27.062;2022-08-30T15:33:54;32.80;99.90
25839;DHT22;13669;50.186;27.062;2022-08-30T15:36:24;33.40;99.90
25839;DHT22;13669;50.186;27.062;2022-08-30T15:38:52;33.40;99.90
25839;DHT22;13669;50.186;27.062;2022-08-30T15:41:22;32.20;99.90
25839;DHT22;13669;50.186;27.062;2022-08-30T15:43:49;31.60;99.90
25839;DHT22;13669;50.186;27.062;2022-08-30T15:46:39;30.40;99.90
25839;DHT22;13669;50.186;27.062;2022-08-30T15:49:11;30.30;99.90
25839;DHT22;13669;50.186;27.062;2022-08-30T15:51:40;30.80;99.90
25839;DHT22;13669;50.186;27.062;2022-08-30T15:54:14;31.00;99.90
25839;DHT22;13669;50.186;27.062;2022-08-30T15:56:43;30.20;99.90
25839;DHT22;13669;50.186;27.062;2022-08-30T15:59:12;29.80;99.90
25839;DHT22;13669;50.186;27.062;2022-08-30T16:01:42;29.90;99.90
25839;DHT22;13669;50.186;27.062;2022-08-30T16:04:10;29.90;99.90
25839;DHT22;13669;50.186;27.062;2022-08-30T16:06:38;30.10;99.90
25839;DHT22;13669;50.186;27.062;2022-08-30T16:09:08;30.30;99.90
25839;DHT22;13669;50.186;27.062;2022-08-30T16:11:37;30.30;99.90
25839;DHT22;13669;50.186;27.062;2022-08-30T16:14:05;30.30;99.90
25839;DHT22;13669;50.186;27.062;2022-08-30T16:16:34;30.30;99.90
25839;DHT22;13669;50.186;27.062;2022-08-30T16:19:06;30.50;99.90
25839;DHT22;13669;50.186;27.062;2022-08-30T16:21:35;30.90;99.90
25839;DHT22;13669;50.186;27.062;2022-08-30T16:24:05;31.10;99.90
25839;DHT22;13669;50.186;27.062;2022-08-30T16:26:34;31.00;99.90
25839;DHT22;13669;50.186;27.062;2022-08-30T16:29:03;30.80;99.90
25839;DHT22;13669;50.186;27.062;2022-08-30T16:31:33;30.50;99.90
25839;DHT22;13669;50.186;27.062;2022-08-30T16:34:02;30.10;99.90
25839;DHT22;13669;50.186;27.062;2022-08-30T16:36:31;29.70;99.90
25839;DHT22;13669;50.186;27.062;2022-08-30T16:38:59;29.10;99.90
25839;DHT22;13669;50.186;27.062;2022-08-30T16:41:27;28.30;99.90
25839;DHT22;13669;50.186;27.062;2022-08-30T16:43:55;27.50;99.90
25839;DHT22;13669;50.186;27.062;2022-08-30T16:46:24;26.80;99.90
25839;DHT22;13669;50.186;27.062;2022-08-30T16:48:56;26.40;99.90
25839;DHT22;13669;50.186;27.062;2022-08-30T16:51:26;26.10;99.90
25839;DHT22;13669;50.186;27.062;2022-08-30T16:53:59;25.90;99.90
25839;DHT22;13669;50.186;27.062;2022-08-30T16:56:29;25.60;99.90
25839;DHT22;13669;50.186;27.062;2022-08-30T16:58:57;25.40;99.90
25839;DHT22;13669;50.186;27.062;2022-08-30T17:01:30;25.10;99.90
25839;DHT22;13669;50.186;27.062;2022-08-30T17:04:02;24.90;99.90
25839;DHT22;13669;50.186;27.062;2022-08-30T17:06:30;24.60;99.90
25839;DHT22;13669;50.186;27.062;2022-08-30T17:08:58;24.40;99.90
25839;DHT22;13669;50.186;27.062;2022-08-30T17:11:26;24.30;99.90
25839;DHT22;13669;50.186;27.062;2022-08-30T17:13:53;24.10;99.90
25839;DHT22;13669;50.186;27.062;2022-08-30T17:16:22;23.90;99.90
25839;DHT22;13669;50.186;27.062;2022-08-30T17:18:56;23.70;99.90
25839;DHT22;13669;50.186;27.062;2022-08-30T17:21:30;23.60;99.90
25839;DHT22;13669;50.186;27.062;2022-08-30T17:23:58;23.40;99.90
25839;DHT22;13669;50.186;27.062;2022-08-30T17:26:30;23.30;99.90
25839;DHT22;13669;50.186;27.062;2022-08-30T17:28:58;23.20;99.90